sensor_id;sensor_type;location;lat;lon;timestamp;P1;durP1;ratioP1;P2;durP2;ratioP2
6442;SDS011;3254;47.372;8.512;2023-06-14T00:00:31;13.97;;;5.07;;
6442;SDS011;3254;47.372;8.512;2023-06-14T00:02:57;4.90;;;4.53;;
6442;SDS011;3254;47.372;8.512;2023-06-14T00:05:24;4.80;;;4.17;;
6442;SDS011;3254;47.372;8.512;2023-06-14T00:07:51;5.53;;;4.30;;
6442;SDS011;3254;47.372;8.512;2023-06-14T00:10:18;4.67;;;3.80;;
6442;SDS011;3254;47.372;8.512;2023-06-14T00:12:44;5.40;;;4.67;;
6442;SDS011;3254;47.372;8.512;2023-06-14T00:15:10;4.60;;;4.20;;
6442;SDS011;3254;47.372;8.512;2023-06-14T00:17:36;4.17;;;3.87;;
6442;SDS011;3254;47.372;8.512;2023-06-14T00:20:04;6.33;;;4.43;;
6442;SDS011;3254;47.372;8.512;2023-06-14T00:22:32;9.00;;;5.03;;
6442;SDS011;3254;47.372;8.512;2023-06-14T00:24:58;5.47;;;3.90;;
6442;SDS011;3254;47.372;8.512;2023-06-14T00:27:23;4.90;;;4.40;;
6442;SDS011;3254;47.372;8.512;2023-06-14T00:29:50;6.67;;;4.77;;
6442;SDS011;3254;47.372;8.512;2023-06-14T00:32:18;6.37;;;4.30;;
6442;SDS011;3254;47.372;8.512;2023-06-14T00:34:45;4.53;;;4.13;;
6442;SDS011;3254;47.372;8.512;2023-06-14T00:37:11;5.70;;;4.30;;
6442;SDS011;3254;47.372;8.512;2023-06-14T00:39:36;9.30;;;4.73;;
6442;SDS011;3254;47.372;8.512;2023-06-14T00:42:03;13.33;;;4.53;;
6442;SDS011;3254;47.372;8.512;2023-06-14T00:44:32;5.50;;;4.90;;
6442;SDS011;3254;47.372;8.512;2023-06-14T00:46:58;6.10;;;4.77;;
6442;SDS011;3254;47.372;8.512;2023-06-14T00:49:24;7.87;;;4.07;;
6442;SDS011;3254;47.372;8.512;2023-06-14T00:51:50;7.20;;;4.67;;
6442;SDS011;3254;47.372;8.512;2023-06-14T00:54:16;4.87;;;4.37;;
6442;SDS011;3254;47.372;8.512;2023-06-14T00:56:42;10.33;;;5.10;;
6442;SDS011;3254;47.372;8.512;2023-06-14T00:59:10;6.37;;;4.93;;
6442;SDS011;3254;47.372;8.512;2023-06-14T01:01:36;5.50;;;4.70;;
6442;SDS011;3254;47.372;8.512;2023-06-14T01:04:02;4.67;;;4.27;;
6442;SDS011;3254;47.372;8.512;2023-06-14T01:09:28;5.03;;;4.67;;
6442;SDS011;3254;47.372;8.512;2023-06-14T01:15:08;10.20;;;5.17;;
6442;SDS011;3254;47.372;8.512;2023-06-14T01:17:35;5.30;;;4.63;;
6442;SDS011;3254;47.372;8.512;2023-06-14T01:20:08;7.90;;;4.70;;
6442;SDS011;3254;47.372;8.512;2023-06-14T01:22:37;6.60;;;4.60;;
6442;SDS011;3254;47.372;8.512;2023-06-14T01:25:08;10.00;;;4.30;;
6442;SDS011;3254;47.372;8.512;2023-06-14T01:27:37;4.27;;;3.97;;
6442;SDS011;3254;47.372;8.512;2023-06-14T01:30:03;4.80;;;4.40;;
6442;SDS011;3254;47.372;8.512;2023-06-14T01:32:30;6.43;;;4.07;;
6442;SDS011;3254;47.372;8.512;2023-06-14T01:34:56;4.97;;;4.57;;
6442;SDS011;3254;47.372;8.512;2023-06-14T01:37:23;6.40;;;4.70;;
6442;SDS011;3254;47.372;8.512;2023-06-14T01:39:49;7.57;;;4.80;;
6442;SDS011;3254;47.372;8.512;2023-06-14T01:42:15;5.70;;;4.70;;
6442;SDS011;3254;47.372;8.512;2023-06-14T01:44:42;4.50;;;4.10;;
6442;SDS011;3254;47.372;8.512;2023-06-14T01:47:10;6.60;;;5.20;;
6442;SDS011;3254;47.372;8.512;2023-06-14T01:49:38;5.37;;;4.90;;
6442;SDS011;3254;47.372;8.512;2023-06-14T01:52:04;6.40;;;4.60;;
6442;SDS011;3254;47.372;8.512;2023-06-14T01:54:31;9.70;;;4.73;;
6442;SDS011;3254;47.372;8.512;2023-06-14T01:56:56;7.77;;;4.53;;
6442;SDS011;3254;47.372;8.512;2023-06-14T01:59:22;4.93;;;4.43;;
6442;SDS011;3254;47.372;8.512;2023-06-14T02:01:48;4.80;;;4.40;;
6442;SDS011;3254;47.372;8.512;2023-06-14T02:04:15;6.50;;;4.00;;
6442;SDS011;3254;47.372;8.512;2023-06-14T02:06:41;7.70;;;4.10;;
6442;SDS011;3254;47.372;8.512;2023-06-14T02:09:07;5.77;;;4.57;;
6442;SDS011;3254;47.372;8.512;2023-06-14T02:11:33;5.03;;;4.47;;
6442;SDS011;3254;47.372;8.512;2023-06-14T02:13:59;5.43;;;4.50;;
6442;SDS011;3254;47.372;8.512;2023-06-14T02:16:26;14.97;;;5.30;;
6442;SDS011;3254;47.372;8.512;2023-06-14T02:18:54;8.90;;;4.80;;
6442;SDS011;3254;47.372;8.512;2023-06-14T02:21:20;5.70;;;5.07;;
6442;SDS011;3254;47.372;8.512;2023-06-14T02:23:47;6.40;;;4.40;;
6442;SDS011;3254;47.372;8.512;2023-06-14T02:26:13;4.83;;;4.20;;
6442;SDS011;3254;47.372;8.512;2023-06-14T02:28:39;5.97;;;4.73;;
6442;SDS011;3254;47.372;8.512;2023-06-14T02:31:09;6.43;;;4.20;;
6442;SDS011;3254;47.372;8.512;2023-06-14T02:33:35;5.43;;;4.90;;
6442;SDS011;3254;47.372;8.512;2023-06-14T02:36:01;4.17;;;3.87;;
6442;SDS011;3254;47.372;8.512;2023-06-14T02:38:28;5.33;;;4.83;;
6442;SDS011;3254;47.372;8.512;2023-06-14T02:40:55;4.30;;;3.90;;
6442;SDS011;3254;47.372;8.512;2023-06-14T02:43:22;4.93;;;4.43;;
6442;SDS011;3254;47.372;8.512;2023-06-14T02:45:47;6.57;;;4.97;;
6442;SDS011;3254;47.372;8.512;2023-06-14T02:48:13;5.30;;;4.20;;
6442;SDS011;3254;47.372;8.512;2023-06-14T02:50:40;6.47;;;4.40;;
6442;SDS011;3254;47.372;8.512;2023-06-14T02:53:07;5.77;;;5.17;;
6442;SDS011;3254;47.372;8.512;2023-06-14T02:55:35;7.37;;;4.60;;
6442;SDS011;3254;47.372;8.512;2023-06-14T02:58:05;5.23;;;4.50;;
6442;SDS011;3254;47.372;8.512;2023-06-14T03:00:31;8.63;;;4.20;;
6442;SDS011;3254;47.372;8.512;2023-06-14T03:02:57;7.30;;;4.30;;
6442;SDS011;3254;47.372;8.512;2023-06-14T03:05:26;5.60;;;4.33;;
6442;SDS011;3254;47.372;8.512;2023-06-14T03:07:53;13.23;;;5.00;;
6442;SDS011;3254;47.372;8.512;2023-06-14T03:10:19;12.73;;;4.10;;
6442;SDS011;3254;47.372;8.512;2023-06-14T03:12:45;4.87;;;4.47;;
6442;SDS011;3254;47.372;8.512;2023-06-14T03:15:12;7.43;;;3.83;;
6442;SDS011;3254;47.372;8.512;2023-06-14T03:17:40;5.20;;;4.00;;
6442;SDS011;3254;47.372;8.512;2023-06-14T03:20:11;4.27;;;4.07;;
6442;SDS011;3254;47.372;8.512;2023-06-14T03:22:39;4.43;;;4.03;;
6442;SDS011;3254;47.372;8.512;2023-06-14T03:25:08;9.73;;;4.27;;
6442;SDS011;3254;47.372;8.512;2023-06-14T03:27:35;5.03;;;4.53;;
6442;SDS011;3254;47.372;8.512;2023-06-14T03:30:01;6.50;;;4.43;;
6442;SDS011;3254;47.372;8.512;2023-06-14T03:32:27;4.23;;;3.83;;
6442;SDS011;3254;47.372;8.512;2023-06-14T03:34:52;4.47;;;3.83;;
6442;SDS011;3254;47.372;8.512;2023-06-14T03:37:20;4.63;;;3.80;;
6442;SDS011;3254;47.372;8.512;2023-06-14T03:39:46;4.57;;;4.20;;
6442;SDS011;3254;47.372;8.512;2023-06-14T03:42:14;5.00;;;4.60;;
6442;SDS011;3254;47.372;8.512;2023-06-14T03:44:39;4.87;;;3.83;;
6442;SDS011;3254;47.372;8.512;2023-06-14T03:47:05;5.03;;;4.10;;
6442;SDS011;3254;47.372;8.512;2023-06-14T03:49:31;5.90;;;4.47;;
6442;SDS011;3254;47.372;8.512;2023-06-14T03:51:58;5.33;;;4.83;;
6442;SDS011;3254;47.372;8.512;2023-06-14T03:54:27;6.10;;;4.80;;
6442;SDS011;3254;47.372;8.512;2023-06-14T03:56:54;10.13;;;4.80;;
6442;SDS011;3254;47.372;8.512;2023-06-14T03:59:22;5.80;;;4.43;;
6442;SDS011;3254;47.372;8.512;2023-06-14T04:01:48;7.40;;;4.77;;
6442;SDS011;3254;47.372;8.512;2023-06-14T04:04:15;10.50;;;4.47;;
6442;SDS011;3254;47.372;8.512;2023-06-14T04:06:41;5.77;;;4.27;;
6442;SDS011;3254;47.372;8.512;2023-06-14T04:09:08;7.23;;;4.80;;
6442;SDS011;3254;47.372;8.512;2023-06-14T04:11:34;5.70;;;4.30;;
6442;SDS011;3254;47.372;8.512;2023-06-14T04:13:59;11.30;;;5.10;;
6442;SDS011;3254;47.372;8.512;2023-06-14T04:16:27;13.63;;;4.30;;
6442;SDS011;3254;47.372;8.512;2023-06-14T04:18:54;4.93;;;4.53;;
6442;SDS011;3254;47.372;8.512;2023-06-14T04:21:21;5.37;;;4.43;;
6442;SDS011;3254;47.372;8.512;2023-06-14T04:23:48;6.03;;;3.90;;
6442;SDS011;3254;47.372;8.512;2023-06-14T04:26:14;7.33;;;4.33;;
6442;SDS011;3254;47.372;8.512;2023-06-14T04:28:41;5.13;;;4.40;;
6442;SDS011;3254;47.372;8.512;2023-06-14T04:31:07;9.40;;;4.80;;
6442;SDS011;3254;47.372;8.512;2023-06-14T04:33:36;4.63;;;3.80;;
6442;SDS011;3254;47.372;8.512;2023-06-14T04:36:11;9.20;;;4.03;;
6442;SDS011;3254;47.372;8.512;2023-06-14T04:38:38;11.97;;;4.47;;
6442;SDS011;3254;47.372;8.512;2023-06-14T04:41:07;5.40;;;4.80;;
6442;SDS011;3254;47.372;8.512;2023-06-14T04:43:36;5.00;;;4.60;;
6442;SDS011;3254;47.372;8.512;2023-06-14T04:46:06;9.43;;;5.00;;
6442;SDS011;3254;47.372;8.512;2023-06-14T04:48:40;8.00;;;4.97;;
6442;SDS011;3254;47.372;8.512;2023-06-14T04:51:09;8.57;;;4.10;;
6442;SDS011;3254;47.372;8.512;2023-06-14T04:53:36;4.90;;;4.50;;
6442;SDS011;3254;47.372;8.512;2023-06-14T04:56:04;6.57;;;5.90;;
6442;SDS011;3254;47.372;8.512;2023-06-14T04:58:30;4.93;;;4.63;;
6442;SDS011;3254;47.372;8.512;2023-06-14T05:00:56;6.30;;;5.00;;
6442;SDS011;3254;47.372;8.512;2023-06-14T05:03:24;4.80;;;4.50;;
6442;SDS011;3254;47.372;8.512;2023-06-14T05:05:52;5.67;;;4.47;;
6442;SDS011;3254;47.372;8.512;2023-06-14T05:08:18;13.63;;;4.70;;
6442;SDS011;3254;47.372;8.512;2023-06-14T05:10:48;4.67;;;4.27;;
6442;SDS011;3254;47.372;8.512;2023-06-14T05:13:14;5.20;;;4.47;;
6442;SDS011;3254;47.372;8.512;2023-06-14T05:15:40;8.07;;;4.53;;
6442;SDS011;3254;47.372;8.512;2023-06-14T05:18:06;14.70;;;5.67;;
6442;SDS011;3254;47.372;8.512;2023-06-14T05:20:34;8.47;;;4.80;;
6442;SDS011;3254;47.372;8.512;2023-06-14T05:23:02;8.80;;;5.40;;
6442;SDS011;3254;47.372;8.512;2023-06-14T05:25:27;4.87;;;4.50;;
6442;SDS011;3254;47.372;8.512;2023-06-14T05:27:53;8.00;;;5.00;;
6442;SDS011;3254;47.372;8.512;2023-06-14T05:30:19;5.40;;;4.90;;
6442;SDS011;3254;47.372;8.512;2023-06-14T05:32:45;11.40;;;4.73;;
6442;SDS011;3254;47.372;8.512;2023-06-14T05:35:10;8.03;;;4.67;;
6442;SDS011;3254;47.372;8.512;2023-06-14T05:37:36;7.53;;;5.30;;
6442;SDS011;3254;47.372;8.512;2023-06-14T05:40:02;7.13;;;4.33;;
6442;SDS011;3254;47.372;8.512;2023-06-14T05:42:32;4.90;;;4.50;;
6442;SDS011;3254;47.372;8.512;2023-06-14T05:44:58;22.37;;;4.67;;
6442;SDS011;3254;47.372;8.512;2023-06-14T05:47:24;6.30;;;4.23;;
6442;SDS011;3254;47.372;8.512;2023-06-14T05:49:50;9.43;;;4.80;;
6442;SDS011;3254;47.372;8.512;2023-06-14T05:52:16;8.03;;;4.47;;
6442;SDS011;3254;47.372;8.512;2023-06-14T05:54:42;6.30;;;4.67;;
6442;SDS011;3254;47.372;8.512;2023-06-14T05:57:07;7.00;;;4.93;;
6442;SDS011;3254;47.372;8.512;2023-06-14T05:59:34;11.40;;;5.10;;
6442;SDS011;3254;47.372;8.512;2023-06-14T06:02:00;7.87;;;5.10;;
6442;SDS011;3254;47.372;8.512;2023-06-14T06:04:25;13.23;;;5.00;;
6442;SDS011;3254;47.372;8.512;2023-06-14T06:06:51;9.13;;;5.03;;
6442;SDS011;3254;47.372;8.512;2023-06-14T06:09:16;7.00;;;4.87;;
6442;SDS011;3254;47.372;8.512;2023-06-14T06:11:42;5.10;;;4.70;;
6442;SDS011;3254;47.372;8.512;2023-06-14T06:14:09;7.30;;;4.67;;
6442;SDS011;3254;47.372;8.512;2023-06-14T06:16:35;8.43;;;4.70;;
6442;SDS011;3254;47.372;8.512;2023-06-14T06:19:00;8.77;;;5.10;;
6442;SDS011;3254;47.372;8.512;2023-06-14T06:21:26;4.63;;;3.83;;
6442;SDS011;3254;47.372;8.512;2023-06-14T06:23:52;6.03;;;5.07;;
6442;SDS011;3254;47.372;8.512;2023-06-14T06:26:21;5.40;;;4.90;;
6442;SDS011;3254;47.372;8.512;2023-06-14T06:28:47;7.20;;;4.77;;
6442;SDS011;3254;47.372;8.512;2023-06-14T06:31:13;5.10;;;4.77;;
6442;SDS011;3254;47.372;8.512;2023-06-14T06:33:39;7.80;;;4.23;;
6442;SDS011;3254;47.372;8.512;2023-06-14T06:36:05;5.30;;;4.80;;
6442;SDS011;3254;47.372;8.512;2023-06-14T06:38:30;10.57;;;4.80;;
6442;SDS011;3254;47.372;8.512;2023-06-14T06:40:56;5.77;;;4.60;;
6442;SDS011;3254;47.372;8.512;2023-06-14T06:43:22;4.43;;;4.00;;
6442;SDS011;3254;47.372;8.512;2023-06-14T06:45:48;4.37;;;4.07;;
6442;SDS011;3254;47.372;8.512;2023-06-14T06:48:14;5.43;;;4.40;;
6442;SDS011;3254;47.372;8.512;2023-06-14T06:50:40;7.67;;;4.60;;
6442;SDS011;3254;47.372;8.512;2023-06-14T06:53:07;5.13;;;4.60;;
6442;SDS011;3254;47.372;8.512;2023-06-14T06:55:33;4.33;;;4.03;;
6442;SDS011;3254;47.372;8.512;2023-06-14T06:57:59;6.17;;;4.70;;
6442;SDS011;3254;47.372;8.512;2023-06-14T07:00:25;5.47;;;4.50;;
6442;SDS011;3254;47.372;8.512;2023-06-14T07:02:52;6.33;;;4.13;;
6442;SDS011;3254;47.372;8.512;2023-06-14T07:05:20;7.50;;;4.90;;
6442;SDS011;3254;47.372;8.512;2023-06-14T07:07:46;6.63;;;4.57;;
6442;SDS011;3254;47.372;8.512;2023-06-14T07:10:11;9.77;;;4.43;;
6442;SDS011;3254;47.372;8.512;2023-06-14T07:12:37;4.47;;;4.17;;
6442;SDS011;3254;47.372;8.512;2023-06-14T07:15:05;6.13;;;4.67;;
6442;SDS011;3254;47.372;8.512;2023-06-14T07:17:32;12.53;;;4.93;;
6442;SDS011;3254;47.372;8.512;2023-06-14T07:20:01;11.30;;;4.00;;
6442;SDS011;3254;47.372;8.512;2023-06-14T07:22:39;4.10;;;3.80;;
6442;SDS011;3254;47.372;8.512;2023-06-14T07:25:09;6.23;;;4.43;;
6442;SDS011;3254;47.372;8.512;2023-06-14T07:27:39;4.53;;;4.20;;
6442;SDS011;3254;47.372;8.512;2023-06-14T07:30:06;5.20;;;4.00;;
6442;SDS011;3254;47.372;8.512;2023-06-14T07:32:32;5.23;;;4.40;;
6442;SDS011;3254;47.372;8.512;2023-06-14T07:34:57;10.00;;;4.60;;
6442;SDS011;3254;47.372;8.512;2023-06-14T07:37:23;9.87;;;5.10;;
6442;SDS011;3254;47.372;8.512;2023-06-14T07:39:49;7.50;;;4.40;;
6442;SDS011;3254;47.372;8.512;2023-06-14T07:42:14;8.70;;;4.40;;
6442;SDS011;3254;47.372;8.512;2023-06-14T07:44:41;3.93;;;3.63;;
6442;SDS011;3254;47.372;8.512;2023-06-14T07:47:07;5.43;;;4.27;;
6442;SDS011;3254;47.372;8.512;2023-06-14T07:49:32;5.97;;;4.23;;
6442;SDS011;3254;47.372;8.512;2023-06-14T07:51:58;5.23;;;3.80;;
6442;SDS011;3254;47.372;8.512;2023-06-14T07:54:24;5.30;;;4.80;;
6442;SDS011;3254;47.372;8.512;2023-06-14T07:56:51;10.73;;;4.47;;
6442;SDS011;3254;47.372;8.512;2023-06-14T07:59:17;4.33;;;4.03;;
6442;SDS011;3254;47.372;8.512;2023-06-14T08:01:44;5.60;;;3.80;;
6442;SDS011;3254;47.372;8.512;2023-06-14T08:04:12;5.20;;;3.87;;
6442;SDS011;3254;47.372;8.512;2023-06-14T08:06:39;5.40;;;4.90;;
6442;SDS011;3254;47.372;8.512;2023-06-14T08:09:04;4.13;;;3.80;;
6442;SDS011;3254;47.372;8.512;2023-06-14T08:11:30;4.23;;;3.83;;
6442;SDS011;3254;47.372;8.512;2023-06-14T08:13:56;4.10;;;3.33;;
6442;SDS011;3254;47.372;8.512;2023-06-14T08:16:22;4.03;;;3.60;;
6442;SDS011;3254;47.372;8.512;2023-06-14T08:18:48;5.43;;;3.47;;
6442;SDS011;3254;47.372;8.512;2023-06-14T08:21:15;3.97;;;3.67;;
6442;SDS011;3254;47.372;8.512;2023-06-14T08:23:41;13.07;;;4.27;;
6442;SDS011;3254;47.372;8.512;2023-06-14T08:26:09;15.77;;;4.50;;
6442;SDS011;3254;47.372;8.512;2023-06-14T08:28:35;11.33;;;3.50;;
6442;SDS011;3254;47.372;8.512;2023-06-14T08:31:04;4.00;;;3.40;;
6442;SDS011;3254;47.372;8.512;2023-06-14T08:33:30;11.13;;;4.93;;
6442;SDS011;3254;47.372;8.512;2023-06-14T08:35:58;12.13;;;4.30;;
6442;SDS011;3254;47.372;8.512;2023-06-14T08:38:23;5.50;;;3.57;;
6442;SDS011;3254;47.372;8.512;2023-06-14T08:40:50;6.50;;;4.13;;
6442;SDS011;3254;47.372;8.512;2023-06-14T08:43:17;4.23;;;3.93;;
6442;SDS011;3254;47.372;8.512;2023-06-14T08:45:44;6.23;;;3.60;;
6442;SDS011;3254;47.372;8.512;2023-06-14T08:48:13;4.20;;;3.80;;
6442;SDS011;3254;47.372;8.512;2023-06-14T08:50:42;7.47;;;4.00;;
6442;SDS011;3254;47.372;8.512;2023-06-14T08:53:11;5.50;;;3.90;;
6442;SDS011;3254;47.372;8.512;2023-06-14T08:55:42;9.50;;;3.40;;
6442;SDS011;3254;47.372;8.512;2023-06-14T08:58:08;7.50;;;3.83;;
6442;SDS011;3254;47.372;8.512;2023-06-14T09:00:34;4.10;;;3.70;;
6442;SDS011;3254;47.372;8.512;2023-06-14T09:03:04;4.37;;;3.97;;
6442;SDS011;3254;47.372;8.512;2023-06-14T09:05:41;4.70;;;4.17;;
6442;SDS011;3254;47.372;8.512;2023-06-14T09:08:09;8.70;;;4.43;;
6442;SDS011;3254;47.372;8.512;2023-06-14T09:10:37;4.20;;;4.00;;
6442;SDS011;3254;47.372;8.512;2023-06-14T09:13:05;8.50;;;3.70;;
6442;SDS011;3254;47.372;8.512;2023-06-14T09:15:31;3.83;;;3.60;;
6442;SDS011;3254;47.372;8.512;2023-06-14T09:18:00;10.33;;;3.70;;
6442;SDS011;3254;47.372;8.512;2023-06-14T09:20:29;7.03;;;3.80;;
6442;SDS011;3254;47.372;8.512;2023-06-14T09:22:55;6.03;;;3.50;;
6442;SDS011;3254;47.372;8.512;2023-06-14T09:25:21;5.67;;;3.50;;
6442;SDS011;3254;47.372;8.512;2023-06-14T09:27:47;5.57;;;3.90;;
6442;SDS011;3254;47.372;8.512;2023-06-14T09:30:13;5.30;;;4.03;;
6442;SDS011;3254;47.372;8.512;2023-06-14T09:32:39;9.43;;;3.77;;
6442;SDS011;3254;47.372;8.512;2023-06-14T09:35:08;7.53;;;3.47;;
6442;SDS011;3254;47.372;8.512;2023-06-14T09:37:35;7.07;;;3.97;;
6442;SDS011;3254;47.372;8.512;2023-06-14T09:40:03;4.40;;;4.03;;
6442;SDS011;3254;47.372;8.512;2023-06-14T09:42:29;5.13;;;3.77;;
6442;SDS011;3254;47.372;8.512;2023-06-14T09:44:56;3.40;;;3.30;;
6442;SDS011;3254;47.372;8.512;2023-06-14T09:47:22;8.27;;;3.90;;
6442;SDS011;3254;47.372;8.512;2023-06-14T09:49:49;5.30;;;3.40;;
6442;SDS011;3254;47.372;8.512;2023-06-14T09:52:16;9.23;;;3.63;;
6442;SDS011;3254;47.372;8.512;2023-06-14T09:54:44;6.00;;;3.53;;
6442;SDS011;3254;47.372;8.512;2023-06-14T09:57:15;3.87;;;3.57;;
6442;SDS011;3254;47.372;8.512;2023-06-14T09:59:49;6.70;;;4.17;;
6442;SDS011;3254;47.372;8.512;2023-06-14T10:02:28;4.27;;;3.87;;
6442;SDS011;3254;47.372;8.512;2023-06-14T10:05:05;3.30;;;3.10;;
6442;SDS011;3254;47.372;8.512;2023-06-14T10:07:35;3.80;;;3.50;;
6442;SDS011;3254;47.372;8.512;2023-06-14T10:10:05;7.50;;;3.40;;
6442;SDS011;3254;47.372;8.512;2023-06-14T10:12:32;10.87;;;3.63;;
6442;SDS011;3254;47.372;8.512;2023-06-14T10:14:58;5.53;;;3.43;;
6442;SDS011;3254;47.372;8.512;2023-06-14T10:20:06;3.77;;;3.47;;
6442;SDS011;3254;47.372;8.512;2023-06-14T10:22:44;22.37;;;3.80;;
6442;SDS011;3254;47.372;8.512;2023-06-14T10:25:29;3.37;;;3.13;;
6442;SDS011;3254;47.372;8.512;2023-06-14T10:31:01;5.77;;;3.63;;
6442;SDS011;3254;47.372;8.512;2023-06-14T10:33:30;5.70;;;4.00;;
6442;SDS011;3254;47.372;8.512;2023-06-14T10:36:08;3.83;;;3.37;;
6442;SDS011;3254;47.372;8.512;2023-06-14T10:38:37;3.93;;;3.70;;
6442;SDS011;3254;47.372;8.512;2023-06-14T10:41:04;5.87;;;3.87;;
6442;SDS011;3254;47.372;8.512;2023-06-14T10:43:30;11.00;;;4.17;;
6442;SDS011;3254;47.372;8.512;2023-06-14T10:46:13;3.97;;;3.60;;
6442;SDS011;3254;47.372;8.512;2023-06-14T10:48:44;3.47;;;3.20;;
6442;SDS011;3254;47.372;8.512;2023-06-14T10:51:17;4.63;;;3.50;;
6442;SDS011;3254;47.372;8.512;2023-06-14T10:53:47;5.87;;;3.53;;
6442;SDS011;3254;47.372;8.512;2023-06-14T10:56:26;3.60;;;3.40;;
6442;SDS011;3254;47.372;8.512;2023-06-14T10:58:56;3.37;;;3.17;;
6442;SDS011;3254;47.372;8.512;2023-06-14T11:01:31;3.60;;;3.40;;
6442;SDS011;3254;47.372;8.512;2023-06-14T11:04:10;9.23;;;3.33;;
6442;SDS011;3254;47.372;8.512;2023-06-14T11:06:49;3.50;;;3.30;;
6442;SDS011;3254;47.372;8.512;2023-06-14T11:11:57;3.20;;;2.93;;
6442;SDS011;3254;47.372;8.512;2023-06-14T11:14:23;3.23;;;3.13;;
6442;SDS011;3254;47.372;8.512;2023-06-14T11:16:49;3.83;;;3.17;;
6442;SDS011;3254;47.372;8.512;2023-06-14T11:19:15;3.10;;;2.90;;
6442;SDS011;3254;47.372;8.512;2023-06-14T11:21:42;3.73;;;3.20;;
6442;SDS011;3254;47.372;8.512;2023-06-14T11:24:11;6.63;;;3.33;;
6442;SDS011;3254;47.372;8.512;2023-06-14T11:26:37;6.10;;;3.13;;
6442;SDS011;3254;47.372;8.512;2023-06-14T11:29:03;3.40;;;3.10;;
6442;SDS011;3254;47.372;8.512;2023-06-14T11:31:29;10.73;;;3.30;;
6442;SDS011;3254;47.372;8.512;2023-06-14T11:33:56;20.17;;;3.10;;
6442;SDS011;3254;47.372;8.512;2023-06-14T11:36:23;4.30;;;3.37;;
6442;SDS011;3254;47.372;8.512;2023-06-14T11:39:01;4.10;;;3.67;;
6442;SDS011;3254;47.372;8.512;2023-06-14T11:41:38;3.70;;;3.50;;
6442;SDS011;3254;47.372;8.512;2023-06-14T11:44:26;3.73;;;3.27;;
6442;SDS011;3254;47.372;8.512;2023-06-14T11:46:51;11.27;;;3.27;;
6442;SDS011;3254;47.372;8.512;2023-06-14T11:49:17;2.80;;;2.60;;
6442;SDS011;3254;47.372;8.512;2023-06-14T11:51:43;3.67;;;3.37;;
6442;SDS011;3254;47.372;8.512;2023-06-14T11:54:08;5.40;;;2.90;;
6442;SDS011;3254;47.372;8.512;2023-06-14T11:56:34;6.73;;;3.57;;
6442;SDS011;3254;47.372;8.512;2023-06-14T11:59:02;5.23;;;3.30;;
6442;SDS011;3254;47.372;8.512;2023-06-14T12:01:30;9.13;;;3.60;;
6442;SDS011;3254;47.372;8.512;2023-06-14T12:03:56;3.90;;;3.67;;
6442;SDS011;3254;47.372;8.512;2023-06-14T12:06:27;5.50;;;3.37;;
6442;SDS011;3254;47.372;8.512;2023-06-14T12:08:57;3.20;;;3.10;;
6442;SDS011;3254;47.372;8.512;2023-06-14T12:11:22;4.20;;;3.30;;
6442;SDS011;3254;47.372;8.512;2023-06-14T12:13:48;3.77;;;3.47;;
6442;SDS011;3254;47.372;8.512;2023-06-14T12:16:14;3.57;;;3.37;;
6442;SDS011;3254;47.372;8.512;2023-06-14T12:18:40;6.47;;;3.17;;
6442;SDS011;3254;47.372;8.512;2023-06-14T12:21:09;3.57;;;3.33;;
6442;SDS011;3254;47.372;8.512;2023-06-14T12:23:44;3.63;;;3.43;;
6442;SDS011;3254;47.372;8.512;2023-06-14T12:26:12;3.27;;;3.07;;
6442;SDS011;3254;47.372;8.512;2023-06-14T12:28:39;3.20;;;3.00;;
6442;SDS011;3254;47.372;8.512;2023-06-14T12:31:07;3.93;;;2.80;;
6442;SDS011;3254;47.372;8.512;2023-06-14T12:33:32;5.03;;;3.27;;
6442;SDS011;3254;47.372;8.512;2023-06-14T12:35:58;3.47;;;3.17;;
6442;SDS011;3254;47.372;8.512;2023-06-14T12:38:24;4.20;;;3.20;;
6442;SDS011;3254;47.372;8.512;2023-06-14T12:40:50;5.43;;;3.50;;
6442;SDS011;3254;47.372;8.512;2023-06-14T12:43:16;3.10;;;2.90;;
6442;SDS011;3254;47.372;8.512;2023-06-14T12:45:41;3.50;;;3.20;;
6442;SDS011;3254;47.372;8.512;2023-06-14T12:48:08;4.00;;;3.43;;
6442;SDS011;3254;47.372;8.512;2023-06-14T12:50:34;3.53;;;3.33;;
6442;SDS011;3254;47.372;8.512;2023-06-14T12:52:59;6.10;;;3.33;;
6442;SDS011;3254;47.372;8.512;2023-06-14T12:55:26;3.87;;;3.37;;
6442;SDS011;3254;47.372;8.512;2023-06-14T12:57:52;13.90;;;3.10;;
6442;SDS011;3254;47.372;8.512;2023-06-14T13:00:17;3.20;;;3.00;;
6442;SDS011;3254;47.372;8.512;2023-06-14T13:02:43;3.27;;;2.97;;
6442;SDS011;3254;47.372;8.512;2023-06-14T13:05:09;3.37;;;3.17;;
6442;SDS011;3254;47.372;8.512;2023-06-14T13:07:35;14.77;;;3.20;;
6442;SDS011;3254;47.372;8.512;2023-06-14T13:10:01;5.73;;;3.07;;
6442;SDS011;3254;47.372;8.512;2023-06-14T13:12:26;2.80;;;2.70;;
6442;SDS011;3254;47.372;8.512;2023-06-14T13:14:52;2.90;;;2.80;;
6442;SDS011;3254;47.372;8.512;2023-06-14T13:17:17;3.30;;;3.00;;
6442;SDS011;3254;47.372;8.512;2023-06-14T13:19:43;6.70;;;3.40;;
6442;SDS011;3254;47.372;8.512;2023-06-14T13:22:10;11.13;;;3.70;;
6442;SDS011;3254;47.372;8.512;2023-06-14T13:24:35;3.13;;;2.67;;
6442;SDS011;3254;47.372;8.512;2023-06-14T13:27:01;8.27;;;2.90;;
6442;SDS011;3254;47.372;8.512;2023-06-14T13:29:27;5.30;;;3.10;;
6442;SDS011;3254;47.372;8.512;2023-06-14T13:31:53;3.27;;;3.07;;
6442;SDS011;3254;47.372;8.512;2023-06-14T13:34:20;5.73;;;2.80;;
6442;SDS011;3254;47.372;8.512;2023-06-14T13:36:46;3.00;;;2.90;;
6442;SDS011;3254;47.372;8.512;2023-06-14T13:39:12;3.40;;;3.10;;
6442;SDS011;3254;47.372;8.512;2023-06-14T13:41:38;7.87;;;3.07;;
6442;SDS011;3254;47.372;8.512;2023-06-14T13:44:04;3.43;;;3.03;;
6442;SDS011;3254;47.372;8.512;2023-06-14T13:46:30;3.07;;;2.97;;
6442;SDS011;3254;47.372;8.512;2023-06-14T13:48:56;3.10;;;2.80;;
6442;SDS011;3254;47.372;8.512;2023-06-14T13:51:23;3.03;;;2.90;;
6442;SDS011;3254;47.372;8.512;2023-06-14T13:53:48;4.40;;;3.57;;
6442;SDS011;3254;47.372;8.512;2023-06-14T13:56:15;4.40;;;3.00;;
6442;SDS011;3254;47.372;8.512;2023-06-14T13:58:41;3.43;;;3.30;;
6442;SDS011;3254;47.372;8.512;2023-06-14T14:01:08;3.00;;;2.90;;
6442;SDS011;3254;47.372;8.512;2023-06-14T14:03:34;4.23;;;3.10;;
6442;SDS011;3254;47.372;8.512;2023-06-14T14:06:00;4.00;;;2.80;;
6442;SDS011;3254;47.372;8.512;2023-06-14T14:08:27;3.40;;;3.20;;
6442;SDS011;3254;47.372;8.512;2023-06-14T14:10:52;6.53;;;2.83;;
6442;SDS011;3254;47.372;8.512;2023-06-14T14:13:18;2.63;;;2.43;;
6442;SDS011;3254;47.372;8.512;2023-06-14T14:15:44;3.10;;;2.80;;
6442;SDS011;3254;47.372;8.512;2023-06-14T14:18:09;4.00;;;3.20;;
6442;SDS011;3254;47.372;8.512;2023-06-14T14:20:35;3.80;;;2.70;;
6442;SDS011;3254;47.372;8.512;2023-06-14T14:23:00;2.83;;;2.63;;
6442;SDS011;3254;47.372;8.512;2023-06-14T14:25:27;4.20;;;2.77;;
6442;SDS011;3254;47.372;8.512;2023-06-14T14:27:52;2.80;;;2.60;;
6442;SDS011;3254;47.372;8.512;2023-06-14T14:30:19;2.90;;;2.63;;
6442;SDS011;3254;47.372;8.512;2023-06-14T14:32:48;8.90;;;2.90;;
6442;SDS011;3254;47.372;8.512;2023-06-14T14:35:14;3.43;;;2.77;;
6442;SDS011;3254;47.372;8.512;2023-06-14T14:37:41;2.97;;;2.77;;
6442;SDS011;3254;47.372;8.512;2023-06-14T14:40:07;3.10;;;3.00;;
6442;SDS011;3254;47.372;8.512;2023-06-14T14:42:34;2.60;;;2.50;;
6442;SDS011;3254;47.372;8.512;2023-06-14T14:45:00;2.50;;;2.40;;
6442;SDS011;3254;47.372;8.512;2023-06-14T14:47:26;2.60;;;2.50;;
6442;SDS011;3254;47.372;8.512;2023-06-14T14:49:52;4.07;;;2.67;;
6442;SDS011;3254;47.372;8.512;2023-06-14T14:52:17;2.67;;;2.47;;
6442;SDS011;3254;47.372;8.512;2023-06-14T14:54:43;2.17;;;2.07;;
6442;SDS011;3254;47.372;8.512;2023-06-14T14:57:09;7.03;;;2.47;;
6442;SDS011;3254;47.372;8.512;2023-06-14T14:59:35;2.83;;;2.30;;
6442;SDS011;3254;47.372;8.512;2023-06-14T15:02:01;3.93;;;2.73;;
6442;SDS011;3254;47.372;8.512;2023-06-14T15:04:27;4.67;;;2.50;;
6442;SDS011;3254;47.372;8.512;2023-06-14T15:06:53;2.63;;;2.27;;
6442;SDS011;3254;47.372;8.512;2023-06-14T15:09:18;3.03;;;2.47;;
6442;SDS011;3254;47.372;8.512;2023-06-14T15:11:44;9.33;;;3.00;;
6442;SDS011;3254;47.372;8.512;2023-06-14T15:14:10;2.80;;;2.70;;
6442;SDS011;3254;47.372;8.512;2023-06-14T15:16:36;3.23;;;2.87;;
6442;SDS011;3254;47.372;8.512;2023-06-14T15:19:02;7.70;;;2.50;;
6442;SDS011;3254;47.372;8.512;2023-06-14T15:21:28;2.50;;;2.40;;
6442;SDS011;3254;47.372;8.512;2023-06-14T15:23:53;2.83;;;2.73;;
6442;SDS011;3254;47.372;8.512;2023-06-14T15:26:19;3.00;;;2.80;;
6442;SDS011;3254;47.372;8.512;2023-06-14T15:28:47;3.33;;;2.70;;